Seneca, Michigan
Current Conditions -  °F | °C
As of 1:53 AM on Sunday 26 Oct 2014 (Local Time) from KADG Reporting Station
Clear Clear  
Wind Chill: 10°   Ceiling: Unl
Heat Index: 10°   Visibility: 10mi
Dew Point:   Wind: 7mph
Humidity: 50%   Direction: 320°NW
Pressure: 29.88"   Gusts: NA
Location:  41.79°N, 84.18°W
Report Text: KADG 260553Z AUTO 32006KT 10SM CLR 10/00 A2988 RMK AO2 SLP119 T01000000 10150 20100 53003
Loading
Personal Weather Stations






























Interactive Weather Map
Tropical Storm Tracking
New forecast layout! Learn more

10-Day Weather Forecast

Advertisements
Track Severe Weather on mobile